Pagrindinis puslapis
METAR-TAF:

METAR-TAF

Oro uostai :

Lemnos, Graikija

platuma: 39-55N, ilguma: 025-14E, Aukštis: 5 m

Dabartinis oras

Ataskaita buvo paskelbta 29 minutes, ne 06:20 UTC
Ramus vėjas
Temperatūra 13°C
Drėgmė 72%
Slėgis 1017 hPa
Matomumas 10 km arba daugiau
nėra debesų žemiau 1500 m ir nėra kamuolinių lietaus debesų

METAR: LGLM 100620Z 00000KT CAVOK 13/08 Q1017

Laikas: 09:49 (06:49 UTC)

Prognozė

Ataskaita buvo paskelbta 1 valandą ir 49 minutes, ne 05:00 UTC
Prognozė galioja nuo 10 metu 06 UTC su 10 metu 15 UTC
Vėjas 12 kt iš Šiaurės/Šiaurės Rytų
Matomumas 10 km arba daugiau
Mažai debesys ne aukštis 2500 ft
Tapsmas
nuo 10 metu 13 UTC su 10 metu 15 UTC
Vėjas 10 kt iš Šiaurės Vakarų

TAF: LGLM 100500Z 1006/1015 03012KT 9999 FEW025 BECMG 1013/1015 31010KT

Orai ataskaitas ir orų prognozės (METAR, TAF).

turimą stotys yra geltonos ir raudonos taškus žemėlapyje.

Perkelti pele per norėdami pamatyti stoties vardą.

Tada spustelėkite, norėdami matyti oro stebėjimo ir prognozės.

Norėdami pakeisti žemėlapį: spustelėkite ant žalios mygtukų su juodo kryžiaus žemyn,; žalią mygtuką su brūkšneliu, jei norite nutolinti; arba žalių rodyklių gretimoms žemėlapius.


METAR-TAF: